Time;durP1;ratioP1;P1;durP2;ratioP2;P2;SDS_P1;SDS_P2;PMS_P1;PMS_P2;Temp;Humidity;BMP_temperature;BMP_pressure;BME280_temperature;BME280_humidity;BME280_pressure;Samples;Min_cycle;Max_cycle;Signal;HPM_P1;HPM_P2
2022/11/20 00:02:09;;;;;;;3.97;2.55;;;;;;;1.08;100.00;101363.72;5053940;28;20024;-76
2022/11/20 00:04:34;;;;;;;4.85;3.90;;;;;;;1.07;100.00;101362.91;5043332;28;20040;-75
2022/11/20 00:07:00;;;;;;;5.72;1.90;;;;;;;1.05;100.00;101371.69;5055702;28;20162;-75
2022/11/20 00:09:25;;;;;;;3.20;2.20;;;;;;;1.09;100.00;101375.78;5078636;28;20052;-75
2022/11/20 00:11:50;;;;;;;3.35;2.53;;;;;;;1.11;100.00;101360.97;5079291;28;20129;-75
2022/11/20 00:14:16;;;;;;;2.13;1.88;;;;;;;0.88;100.00;101333.53;5076111;28;20058;-75
2022/11/20 00:16:42;;;;;;;2.53;2.30;;;;;;;1.06;100.00;101361.19;5027503;28;20051;-76
2022/11/20 00:19:07;;;;;;;1.50;1.40;;;;;;;1.09;100.00;101362.78;5058489;28;20060;-75
2022/11/20 00:21:32;;;;;;;6.43;4.03;;;;;;;0.98;100.00;101337.34;5076773;28;20032;-76
2022/11/20 00:23:58;;;;;;;3.60;1.52;;;;;;;1.13;100.00;101354.78;5061325;28;20450;-75
2022/11/20 00:26:25;;;;;;;3.53;2.40;;;;;;;1.14;100.00;101364.25;5060997;28;20017;-75
2022/11/20 00:28:59;;;;;;;2.08;1.13;;;;;;;1.20;100.00;101355.31;5077572;28;20025;-76
2022/11/20 00:31:24;;;;;;;3.90;1.80;;;;;;;1.21;100.00;101363.03;5073291;28;20492;-76
2022/11/20 00:33:50;;;;;;;3.25;1.65;;;;;;;1.16;100.00;101352.03;5078173;28;20032;-75
2022/11/20 00:36:20;;;;;;;2.83;2.35;;;;;;;1.26;100.00;101373.19;5079493;28;20024;-77
2022/11/20 00:38:46;;;;;;;4.30;1.90;;;;;;;1.32;100.00;101378.09;5061013;28;20476;-76
2022/11/20 00:41:14;;;;;;;2.50;1.95;;;;;;;1.36;100.00;101376.19;5076284;28;20113;-75
2022/11/20 00:43:39;;;;;;;4.85;1.85;;;;;;;1.31;100.00;101371.22;5076147;28;20035;-75
2022/11/20 00:46:15;;;;;;;2.97;2.28;;;;;;;1.20;100.00;101366.56;5076890;28;20032;-75
2022/11/20 00:48:40;;;;;;;2.35;2.08;;;;;;;0.97;100.00;101344.28;5075650;28;20023;-76
2022/11/20 00:51:06;;;;;;;2.22;1.75;;;;;;;1.03;100.00;101361.34;5061827;28;20396;-76
2022/11/20 00:53:31;;;;;;;5.07;2.15;;;;;;;1.02;100.00;101337.13;5077779;28;20037;-75
2022/11/20 00:56:00;;;;;;;2.75;1.70;;;;;;;1.04;100.00;101342.22;5074752;28;20036;-75
2022/11/20 00:58:29;;;;;;;3.95;2.90;;;;;;;0.87;100.00;101343.09;5075433;28;20044;-75
2022/11/20 01:01:00;;;;;;;2.80;2.05;;;;;;;0.80;100.00;101339.91;5074322;28;20035;-75
2022/11/20 01:03:26;;;;;;;6.40;2.90;;;;;;;0.80;100.00;101334.72;5059689;28;20028;-75
2022/11/20 01:05:51;;;;;;;1.85;1.73;;;;;;;0.71;100.00;101336.94;5042883;28;20082;-76
2022/11/20 01:08:16;;;;;;;2.25;1.55;;;;;;;0.67;100.00;101346.63;5076492;28;20034;-76
2022/11/20 01:10:42;;;;;;;3.38;2.55;;;;;;;0.78;100.00;101336.59;5055174;28;20071;-76
2022/11/20 01:15:51;;;;;;;3.53;2.03;;;;;;;0.62;100.00;101335.63;5073183;28;20071;-75
2022/11/20 01:18:16;;;;;;;3.05;2.22;;;;;;;0.61;100.00;101319.22;5058443;28;20072;-75
2022/11/20 01:20:42;;;;;;;2.13;1.85;;;;;;;0.75;100.00;101352.31;5058403;28;20552;-76
2022/11/20 01:23:07;;;;;;;4.25;2.53;;;;;;;0.71;100.00;101324.78;5079078;28;20051;-76
2022/11/20 01:25:34;;;;;;;2.38;2.05;;;;;;;0.97;100.00;101353.84;5045296;28;20030;-74
2022/11/20 01:28:00;;;;;;;2.72;2.20;;;;;;;0.91;100.00;101331.59;5073809;28;20094;-76
2022/11/20 01:30:25;;;;;;;3.22;2.92;;;;;;;1.04;100.00;101337.03;5074413;28;20032;-75
2022/11/20 01:32:50;;;;;;;5.30;1.75;;;;;;;1.09;100.00;101335.06;5077610;28;20114;-76
2022/11/20 01:35:16;;;;;;;7.25;2.28;;;;;;;1.00;100.00;101320.78;5079354;28;20032;-75
2022/11/20 01:37:41;;;;;;;2.85;2.53;;;;;;;1.07;100.00;101336.03;5040059;28;20063;-76
2022/11/20 01:40:07;;;;;;;2.95;1.85;;;;;;;1.05;100.00;101320.53;5073608;28;20520;-75
2022/11/20 01:45:52;;;;;;;4.78;1.98;;;;;;;1.28;100.00;101331.53;5033927;28;20039;-76
2022/11/20 01:48:20;;;;;;;2.45;1.80;;;;;;;1.33;100.00;101335.59;5059768;28;20044;-76
2022/11/20 01:50:45;;;;;;;2.40;2.20;;;;;;;1.36;100.00;101326.78;5059217;28;20329;-76
2022/11/20 01:53:14;;;;;;;2.65;1.95;;;;;;;1.38;100.00;101330.13;5056348;28;20044;-76
2022/11/20 01:55:46;;;;;;;2.60;1.83;;;;;;;1.26;100.00;101304.75;5075504;28;20090;-76
2022/11/20 01:58:12;;;;;;;3.10;1.60;;;;;;;1.27;100.00;101303.84;5075203;28;20035;-76
2022/11/20 02:00:37;;;;;;;3.42;3.13;;;;;;;1.41;100.00;101322.16;5057531;28;20431;-74
2022/11/20 02:03:13;;;;;;;2.13;1.80;;;;;;;1.44;100.00;101320.25;5076641;28;20043;-74
2022/11/20 02:05:47;;;;;;;4.28;2.78;;;;;;;1.48;100.00;101315.75;5074798;28;20035;-74
2022/11/20 02:08:13;;;;;;;2.42;1.85;;;;;;;1.29;100.00;101286.41;5076035;28;20070;-75
2022/11/20 02:10:39;;;;;;;4.75;2.47;;;;;;;1.21;100.00;101298.03;5053109;28;20044;-74
2022/11/20 02:15:49;;;;;;;2.92;2.47;;;;;;;0.80;100.00;101282.75;5058162;28;20656;-74
2022/11/20 02:18:17;;;;;;;2.92;1.60;;;;;;;0.95;100.00;101293.31;5073901;28;20024;-74
2022/11/20 02:20:45;;;;;;;2.55;2.35;;;;;;;1.03;100.00;101288.56;5075216;28;20024;-74
2022/11/20 02:23:29;;;;;;;4.20;2.80;;;;;;;1.16;100.00;101284.44;5072630;28;20656;-74
2022/11/20 02:25:55;;;;;;;3.42;1.85;;;;;;;1.19;100.00;101292.06;5077381;28;20107;-74
2022/11/20 02:28:21;;;;;;;3.05;1.10;;;;;;;1.14;100.00;101277.63;5076298;28;20020;-74
2022/11/20 02:30:47;;;;;;;3.15;2.38;;;;;;;1.19;100.00;101286.84;5056751;28;20448;-74
2022/11/20 02:33:12;;;;;;;3.90;1.90;;;;;;;1.25;100.00;101287.47;5039606;28;20107;-74
2022/11/20 02:35:43;;;;;;;5.75;3.20;;;;;;;1.18;100.00;101271.38;5057330;28;20036;-74
2022/11/20 02:38:09;;;;;;;;;;;;;;;1.19;100.00;101263.47;5075356;28;20516;-73
2022/11/20 02:40:34;;;;;;;2.20;1.83;;;;;;;1.21;100.00;101277.22;5075548;28;19916;-73
2022/11/20 02:43:00;;;;;;;1.23;1.13;;;;;;;1.20;100.00;101275.56;5058059;28;20477;-73
2022/11/20 02:45:25;;;;;;;2.42;1.85;;;;;;;1.19;100.00;101275.63;5057639;28;20408;-73
2022/11/20 02:47:51;;;;;;;2.40;2.20;;;;;;;1.01;100.00;101254.03;5072663;28;20032;-74
2022/11/20 02:50:17;;;;;;;3.83;2.05;;;;;;;1.12;100.00;101274.28;5075604;28;20035;-74
2022/11/20 02:52:42;;;;;;;2.75;2.40;;;;;;;1.00;100.00;101239.31;5057142;28;20028;-74
2022/11/20 02:55:08;;;;;;;1.75;1.65;;;;;;;1.14;100.00;101262.88;5055464;28;20041;-74
2022/11/20 02:57:33;;;;;;;4.20;1.50;;;;;;;1.13;100.00;101258.59;5072525;28;20031;-74
2022/11/20 02:59:58;;;;;;;4.60;2.55;;;;;;;1.10;100.00;101257.91;5075504;28;20033;-74
2022/11/20 03:02:24;;;;;;;3.40;1.73;;;;;;;1.06;100.00;101254.63;5076889;28;20048;-74
2022/11/20 03:04:49;;;;;;;2.97;1.30;;;;;;;0.91;100.00;101243.25;5039740;28;20040;-74
2022/11/20 03:07:15;;;;;;;3.03;1.50;;;;;;;1.07;100.00;101258.06;5075233;28;20039;-74
2022/11/20 03:09:40;;;;;;;2.28;1.90;;;;;;;1.02;100.00;101251.34;5074780;28;20096;-75
2022/11/20 03:12:06;;;;;;;1.95;0.95;;;;;;;1.08;100.00;101255.38;5040548;28;20175;-74
2022/11/20 03:14:31;;;;;;;2.65;1.50;;;;;;;1.02;100.00;101256.56;5056380;28;20125;-74
2022/11/20 03:16:57;;;;;;;3.67;2.40;;;;;;;1.00;100.00;101242.78;5074694;28;20046;-74
2022/11/20 03:19:23;;;;;;;2.25;2.05;;;;;;;0.93;100.00;101227.56;5073860;28;20043;-74
2022/11/20 03:21:48;;;;;;;1.58;1.48;;;;;;;1.03;100.00;101237.44;5073348;28;20028;-73
2022/11/20 03:24:14;;;;;;;2.97;2.67;;;;;;;1.08;100.00;101234.59;5058164;28;20050;-73
2022/11/20 03:26:40;;;;;;;3.63;1.90;;;;;;;1.14;100.00;101247.28;5056771;28;20031;-74
2022/11/20 03:29:05;;;;;;;4.55;2.28;;;;;;;0.98;100.00;101246.38;5053757;28;20038;-73
2022/11/20 03:31:34;;;;;;;2.40;1.88;;;;;;;1.00;100.00;101236.72;5073797;28;20533;-74
2022/11/20 03:34:00;;;;;;;6.13;2.78;;;;;;;1.12;100.00;101245.69;5074637;28;20339;-73
2022/11/20 03:36:26;;;;;;;3.30;2.35;;;;;;;1.13;100.00;101244.75;5072589;28;20032;-74
2022/11/20 03:38:53;;;;;;;3.15;2.70;;;;;;;0.98;100.00;101225.56;5072114;28;20476;-74
2022/11/20 03:41:24;;;;;;;6.60;1.85;;;;;;;1.13;100.00;101242.16;5072377;28;20492;-75
2022/11/20 03:43:58;;;;;;;3.67;2.88;;;;;;;1.19;100.00;101245.25;5074471;28;20066;-73
2022/11/20 03:46:24;;;;;;;2.92;2.47;;;;;;;1.07;100.00;101208.66;5069301;28;20063;-74
2022/11/20 03:48:50;;;;;;;4.47;3.55;;;;;;;1.16;100.00;101227.22;5039513;28;20102;-74
2022/11/20 03:51:17;;;;;;;3.60;2.38;;;;;;;1.29;100.00;101232.63;5055033;28;20036;-74
2022/11/20 03:53:45;;;;;;;3.80;2.42;;;;;;;1.34;100.00;101229.78;5076501;28;20399;-72
2022/11/20 03:56:12;;;;;;;4.05;2.45;;;;;;;1.36;100.00;101223.59;5073797;28;20032;-74
2022/11/20 03:58:41;;;;;;;3.10;1.92;;;;;;;1.12;100.00;101201.47;5072142;28;20037;-73
2022/11/20 04:01:11;;;;;;;2.75;2.33;;;;;;;1.21;100.00;101207.03;5071593;28;20418;-73
2022/11/20 04:03:38;;;;;;;3.95;2.63;;;;;;;1.27;100.00;101213.66;5074736;28;20512;-74
2022/11/20 04:06:09;;;;;;;6.53;3.08;;;;;;;1.28;100.00;101207.53;5059409;28;20036;-74
2022/11/20 04:08:35;;;;;;;4.13;2.40;;;;;;;1.39;100.00;101209.56;5070844;28;20032;-73
2022/11/20 04:11:13;;;;;;;3.15;2.17;;;;;;;1.37;100.00;101209.66;5073210;28;20047;-74
2022/11/20 04:13:39;;;;;;;3.90;2.10;;;;;;;1.21;100.00;101199.22;5070419;28;20087;-73
2022/11/20 04:16:06;;;;;;;3.35;3.05;;;;;;;1.13;100.00;101190.16;5073439;28;20093;-74
2022/11/20 04:18:32;;;;;;;2.72;1.85;;;;;;;1.17;100.00;101192.50;5072753;28;20046;-72
2022/11/20 04:20:58;;;;;;;3.38;1.85;;;;;;;1.10;100.00;101182.53;5075062;28;20119;-72
2022/11/20 04:23:24;;;;;;;4.05;2.17;;;;;;;1.11;100.00;101192.84;5071929;28;20576;-74
2022/11/20 04:25:50;;;;;;;4.07;2.60;;;;;;;0.99;100.00;101185.69;5074766;28;20403;-74
2022/11/20 04:28:16;;;;;;;3.30;1.40;;;;;;;0.87;100.00;101183.72;5034610;28;20024;-74
2022/11/20 04:30:42;;;;;;;2.35;2.03;;;;;;;0.86;100.00;101189.84;5075921;28;20400;-73
2022/11/20 04:33:07;;;;;;;1.88;1.27;;;;;;;0.86;100.00;101187.25;5076381;28;20032;-74
2022/11/20 04:35:37;;;;;;;2.35;1.55;;;;;;;0.94;100.00;101185.94;5057684;28;20039;-73
2022/11/20 04:38:03;;;;;;;2.33;1.65;;;;;;;0.88;100.00;101185.41;5075989;28;20029;-73
2022/11/20 04:40:29;;;;;;;3.33;1.48;;;;;;;0.67;100.00;101146.59;5075753;28;20036;-73
2022/11/20 04:42:55;;;;;;;1.73;1.52;;;;;;;0.91;100.00;101180.88;5058641;28;20524;-73
2022/11/20 04:45:21;;;;;;;1.60;1.20;;;;;;;0.91;100.00;101169.63;5074575;28;20092;-72
2022/11/20 04:47:47;;;;;;;3.72;1.85;;;;;;;1.05;100.00;101177.56;5073714;28;20107;-74
2022/11/20 04:50:12;;;;;;;2.63;2.42;;;;;;;0.90;100.00;101173.19;5078673;28;20290;-74
2022/11/20 04:52:37;;;;;;;7.32;3.13;;;;;;;0.80;100.00;101163.22;5077707;28;20716;-74
2022/11/20 04:55:04;;;;;;;3.28;1.42;;;;;;;0.68;100.00;101163.06;5058777;28;20094;-74
2022/11/20 04:57:29;;;;;;;2.30;2.08;;;;;;;0.66;100.00;101168.31;5077728;28;20081;-73
2022/11/20 04:59:54;;;;;;;2.47;2.28;;;;;;;0.70;100.00;101162.06;5077524;28;20052;-73
2022/11/20 05:02:20;;;;;;;4.78;2.92;;;;;;;0.70;100.00;101167.25;5077058;28;20016;-74
2022/11/20 05:04:45;;;;;;;5.15;3.75;;;;;;;0.59;100.00;101156.56;5077413;28;20104;-73
2022/11/20 05:07:11;;;;;;;3.40;2.95;;;;;;;0.55;100.00;101162.84;5058922;28;20108;-73
2022/11/20 05:09:36;;;;;;;2.58;2.30;;;;;;;0.38;100.00;101155.88;5061048;28;20020;-73
2022/11/20 05:12:01;;;;;;;4.78;3.42;;;;;;;0.34;100.00;101143.97;5044129;28;20033;-73
2022/11/20 05:14:27;;;;;;;5.15;2.50;;;;;;;0.32;100.00;101140.59;5078348;28;20115;-73
2022/11/20 05:16:52;;;;;;;1.67;1.48;;;;;;;0.27;100.00;101138.25;5060853;28;20513;-73
2022/11/20 05:19:17;;;;;;;2.60;2.00;;;;;;;0.22;100.00;101135.06;5060543;28;20838;-74
2022/11/20 05:21:43;;;;;;;4.82;2.08;;;;;;;0.26;100.00;101133.13;5060579;28;20051;-73
2022/11/20 05:24:08;;;;;;;5.47;3.03;;;;;;;0.11;100.00;101106.16;5078410;28;20024;-73
2022/11/20 05:26:33;;;;;;;2.10;1.38;;;;;;;-0.05;100.00;101098.31;5028220;28;20034;-73
2022/11/20 05:28:59;;;;;;;3.17;1.88;;;;;;;0.11;100.00;101120.00;5057827;28;20407;-73
2022/11/20 05:31:25;;;;;;;4.55;2.00;;;;;;;0.08;100.00;101111.53;5075333;28;20028;-73
2022/11/20 05:33:51;;;;;;;2.53;1.98;;;;;;;0.25;100.00;101129.69;5060272;28;20103;-73
2022/11/20 05:36:17;;;;;;;5.90;2.25;;;;;;;0.38;100.00;101137.72;5077945;28;20122;-73
2022/11/20 05:38:43;;;;;;;2.75;2.38;;;;;;;0.36;100.00;101116.19;5077254;28;20021;-73
2022/11/20 05:41:17;;;;;;;2.35;2.15;;;;;;;0.56;100.00;101130.72;5077325;28;20443;-72
2022/11/20 05:43:44;;;;;;;2.10;1.80;;;;;;;0.65;100.00;101134.63;5075756;28;20023;-72
2022/11/20 05:46:11;;;;;;;1.80;1.60;;;;;;;0.66;100.00;101138.91;5074487;28;20488;-72
2022/11/20 05:48:40;;;;;;;2.20;1.95;;;;;;;0.71;100.00;101137.72;5074487;28;20051;-72
2022/11/20 05:51:09;;;;;;;2.05;1.33;;;;;;;0.77;100.00;101142.63;5073273;28;20122;-73
2022/11/20 05:53:35;;;;;;;3.17;2.65;;;;;;;0.82;100.00;101130.22;5057418;28;20025;-73
2022/11/20 05:56:03;;;;;;;3.53;1.90;;;;;;;0.89;100.00;101124.69;5076116;28;20115;-73
2022/11/20 05:58:30;;;;;;;2.10;1.58;;;;;;;1.06;100.00;101132.44;5075560;28;20036;-73
2022/11/20 06:01:10;;;;;;;2.28;1.55;;;;;;;1.08;100.00;101117.59;5072319;28;20392;-74
2022/11/20 06:03:36;;;;;;;2.90;2.70;;;;;;;0.90;100.00;101110.81;5072297;28;20051;-73
2022/11/20 06:06:03;;;;;;;2.35;1.38;;;;;;;0.96;100.00;101120.88;5073388;28;20494;-72
2022/11/20 06:08:29;;;;;;;1.92;1.75;;;;;;;1.04;100.00;101123.88;5070653;28;20035;-72
2022/11/20 06:10:55;;;;;;;0.75;0.75;;;;;;;1.08;100.00;101130.59;5055972;28;20043;-73
2022/11/20 06:13:20;;;;;;;5.35;1.60;;;;;;;0.88;100.00;101097.06;5072062;28;20037;-73
2022/11/20 06:15:52;;;;;;;3.38;2.78;;;;;;;0.89;100.00;101099.53;5041853;28;20062;-73
2022/11/20 06:18:19;;;;;;;2.38;1.88;;;;;;;0.91;100.00;101112.47;5069140;28;20162;-73
2022/11/20 06:20:45;;;;;;;3.17;1.63;;;;;;;0.75;100.00;101089.06;5070582;28;20044;-72
2022/11/20 06:23:10;;;;;;;4.07;1.58;;;;;;;0.89;100.00;101114.31;5038177;28;20448;-73
2022/11/20 06:25:42;;;;;;;7.43;2.85;;;;;;;0.82;100.00;101119.81;5073887;28;20119;-73
2022/11/20 06:28:08;;;;;;;2.42;2.22;;;;;;;0.80;100.00;101120.84;5071360;28;20059;-73
2022/11/20 06:30:34;;;;;;;2.40;2.20;;;;;;;0.60;100.00;101098.50;5073813;28;20051;-73
2022/11/20 06:32:59;;;;;;;2.78;2.45;;;;;;;0.71;100.00;101114.34;5037632;28;20079;-73
2022/11/20 06:35:25;;;;;;;4.82;1.75;;;;;;;0.73;100.00;101107.31;5056741;28;20036;-73
2022/11/20 06:37:50;;;;;;;1.58;1.48;;;;;;;0.75;100.00;101120.25;5054641;28;20395;-72
2022/11/20 06:40:15;;;;;;;3.72;1.73;;;;;;;0.80;100.00;101124.25;5073961;28;20077;-72
2022/11/20 06:42:41;;;;;;;1.98;1.88;;;;;;;0.78;100.00;101113.13;5072655;28;20029;-73
2022/11/20 06:45:07;;;;;;;5.82;2.85;;;;;;;0.91;100.00;101128.91;5035211;28;20062;-72
2022/11/20 06:47:33;;;;;;;1.98;1.77;;;;;;;0.73;100.00;101103.91;5070365;28;20103;-73
2022/11/20 06:49:58;;;;;;;3.47;2.13;;;;;;;0.95;100.00;101119.19;5074477;28;20069;-72
2022/11/20 06:52:24;;;;;;;2.40;2.15;;;;;;;0.80;100.00;101107.84;5054921;28;20028;-72
2022/11/20 06:54:49;;;;;;;2.40;1.95;;;;;;;0.91;100.00;101125.47;5037775;28;20043;-73
2022/11/20 06:57:14;;;;;;;2.08;1.88;;;;;;;0.98;100.00;101119.00;5069825;28;20071;-72
2022/11/20 06:59:40;;;;;;;2.92;1.55;;;;;;;0.93;100.00;101123.63;5072273;28;20036;-72
2022/11/20 07:02:10;;;;;;;2.15;1.58;;;;;;;1.00;100.00;101118.03;5068909;28;20807;-72
2022/11/20 07:04:35;;;;;;;5.00;1.95;;;;;;;0.95;100.00;101106.19;5067485;28;20027;-73
2022/11/20 07:07:01;;;;;;;2.75;2.17;;;;;;;0.89;100.00;101101.31;5053616;28;20093;-73
2022/11/20 07:09:26;;;;;;;2.53;2.17;;;;;;;1.09;100.00;101124.50;5073420;28;20071;-72
2022/11/20 07:11:51;;;;;;;5.55;2.20;;;;;;;1.08;100.00;101108.97;5053735;28;20028;-74
2022/11/20 07:14:17;;;;;;;2.13;1.50;;;;;;;1.30;100.00;101125.09;5054870;28;20029;-74
2022/11/20 07:16:42;;;;;;;2.08;1.92;;;;;;;1.49;100.00;101137.94;5037684;28;20052;-75
2022/11/20 07:19:07;;;;;;;1.77;1.58;;;;;;;1.57;100.00;101132.31;5054675;28;20044;-74
2022/11/20 07:21:33;;;;;;;2.75;2.25;;;;;;;1.63;100.00;101131.94;5071375;28;20025;-74
2022/11/20 07:23:58;;;;;;;3.67;2.03;;;;;;;1.69;100.00;101131.63;5053033;28;20047;-74
2022/11/20 07:26:23;;;;;;;5.43;2.58;;;;;;;1.67;100.00;101128.25;5067590;28;20031;-75
2022/11/20 07:28:49;;;;;;;1.85;1.75;;;;;;;1.75;100.00;101130.44;5053304;28;20468;-75
2022/11/20 07:31:14;;;;;;;3.78;2.47;;;;;;;1.85;100.00;101134.19;5034432;28;20481;-74
2022/11/20 07:33:40;;;;;;;2.55;1.77;;;;;;;1.82;100.00;101124.78;5054319;28;20071;-74
2022/11/20 07:36:05;;;;;;;3.05;2.25;;;;;;;1.80;100.00;101125.81;5051254;28;20024;-75
2022/11/20 07:38:31;;;;;;;2.13;1.35;;;;;;;1.78;100.00;101115.47;5039663;28;20036;-75
2022/11/20 07:40:57;;;;;;;3.53;2.40;;;;;;;1.80;100.00;101115.41;5074432;28;20031;-75
2022/11/20 07:43:23;;;;;;;3.72;2.40;;;;;;;1.88;100.00;101123.63;5071514;28;20032;-75
2022/11/20 07:45:49;;;;;;;4.03;2.22;;;;;;;1.90;100.00;101137.38;5055670;28;20033;-75
2022/11/20 07:48:14;;;;;;;1.80;1.60;;;;;;;1.90;100.00;101129.56;5055996;28;20087;-75
2022/11/20 07:50:39;;;;;;;3.90;2.83;;;;;;;1.81;100.00;101109.28;5034454;28;20340;-75
2022/11/20 07:53:05;;;;;;;2.85;2.25;;;;;;;1.89;100.00;101125.28;5052027;28;20042;-75
2022/11/20 07:55:31;;;;;;;4.00;2.50;;;;;;;1.91;100.00;101118.22;5056025;28;20036;-75
2022/11/20 07:57:58;;;;;;;4.55;3.83;;;;;;;1.94;100.00;101125.88;5069404;28;20046;-75
2022/11/20 08:00:24;;;;;;;2.97;2.22;;;;;;;1.82;100.00;101097.94;5038364;28;20370;-75
2022/11/20 08:02:50;;;;;;;4.65;1.98;;;;;;;1.91;100.00;101131.25;4952755;28;20048;-74
2022/11/20 08:05:16;;;;;;;5.60;1.27;;;;;;;1.93;100.00;101118.16;4979183;28;20044;-75
2022/11/20 08:07:43;;;;;;;25.92;10.13;;;;;;;1.94;100.00;101120.66;4997196;28;20714;-75
2022/11/20 08:10:10;;;;;;;14.77;5.90;;;;;;;1.99;100.00;101129.03;5062472;28;20040;-75
2022/11/20 08:15:20;;;;;;;3.53;3.05;;;;;;;1.96;100.00;101134.44;5078793;28;20140;-75
2022/11/20 08:17:46;;;;;;;3.05;2.47;;;;;;;1.90;100.00;101120.94;5059380;28;20048;-75
2022/11/20 08:20:11;;;;;;;6.25;4.22;;;;;;;1.72;100.00;101122.78;5076923;28;20581;-75
2022/11/20 08:22:36;;;;;;;3.97;2.95;;;;;;;1.75;100.00;101120.03;5077442;28;20183;-75
2022/11/20 08:25:02;;;;;;;7.72;3.95;;;;;;;1.62;100.00;101109.47;5078141;28;20463;-75
2022/11/20 08:27:27;;;;;;;7.97;3.78;;;;;;;1.59;100.00;101101.81;5041314;28;20032;-75
2022/11/20 08:29:53;;;;;;;3.30;2.30;;;;;;;1.57;100.00;101121.91;5076695;28;20020;-72
2022/11/20 08:32:18;;;;;;;5.55;2.70;;;;;;;1.61;100.00;101119.06;5075376;28;20028;-72
2022/11/20 08:34:43;;;;;;;6.65;3.85;;;;;;;1.72;100.00;101122.78;5075942;28;20378;-72
2022/11/20 08:37:09;;;;;;;5.13;3.67;;;;;;;1.66;100.00;101125.75;5075474;28;20028;-73
2022/11/20 08:39:34;;;;;;;9.23;5.88;;;;;;;1.60;100.00;101116.53;5073801;28;20029;-73
2022/11/20 08:41:59;;;;;;;4.28;2.38;;;;;;;1.59;100.00;101126.09;5074898;28;20044;-73
2022/11/20 08:44:25;;;;;;;4.72;1.98;;;;;;;1.64;100.00;101129.28;5057370;28;20033;-73
2022/11/20 08:46:50;;;;;;;1.95;1.30;;;;;;;1.74;100.00;101120.94;5074198;28;20119;-73
2022/11/20 08:49:16;;;;;;;2.50;2.28;;;;;;;1.68;100.00;101123.88;5058239;28;20381;-72
2022/11/20 08:51:41;;;;;;;7.97;3.00;;;;;;;1.72;100.00;101125.41;5074524;28;20042;-71
2022/11/20 08:54:07;;;;;;;5.28;3.10;;;;;;;1.69;100.00;101103.00;5073478;28;20025;-71
2022/11/20 08:56:33;;;;;;;2.17;1.75;;;;;;;1.78;100.00;101128.50;5056853;28;20081;-71
2022/11/20 08:59:01;;;;;;;2.17;1.58;;;;;;;1.95;100.00;101117.13;5056752;28;20341;-71
2022/11/20 09:01:28;;;;;;;3.17;2.47;;;;;;;2.06;100.00;101119.94;5075482;28;20039;-72
2022/11/20 09:03:57;;;;;;;2.45;1.83;;;;;;;2.11;100.00;101100.63;5076147;28;20115;-72
2022/11/20 09:06:23;;;;;;;3.58;2.13;;;;;;;2.33;100.00;101121.91;5056848;28;20036;-72
2022/11/20 09:08:52;;;;;;;5.45;2.15;;;;;;;2.39;100.00;101121.50;5075412;28;20023;-72
2022/11/20 09:11:17;;;;;;;3.67;1.70;;;;;;;2.47;100.00;101123.69;5074073;28;20021;-72
2022/11/20 09:13:43;;;;;;;3.85;2.05;;;;;;;2.51;100.00;101114.75;5056476;28;20093;-72
2022/11/20 09:16:08;;;;;;;3.70;2.55;;;;;;;2.53;100.00;101112.06;5071915;28;20035;-70
2022/11/20 09:18:38;;;;;;;9.57;5.32;;;;;;;2.46;100.00;101109.81;5072053;28;20248;-70
2022/11/20 09:21:12;;;;;;;4.57;2.45;;;;;;;2.40;100.00;101109.34;5058431;28;20028;-70
2022/11/20 09:23:39;;;;;;;4.35;2.55;;;;;;;2.19;100.00;101104.47;5055633;28;20054;-70
2022/11/20 09:26:10;;;;;;;3.15;1.23;;;;;;;2.05;100.00;101079.25;5074945;28;20136;-70
2022/11/20 09:28:35;;;;;;;2.67;1.67;;;;;;;2.21;100.00;101100.00;5075180;28;20024;-70
2022/11/20 09:31:05;;;;;;;1.40;1.30;;;;;;;2.27;100.00;101096.22;5076947;28;20085;-70
2022/11/20 09:33:30;;;;;;;2.95;2.08;;;;;;;2.26;100.00;101094.50;5074547;28;20024;-70
2022/11/20 09:35:56;;;;;;;2.85;1.30;;;;;;;2.32;100.00;101094.16;5075019;28;20073;-70
2022/11/20 09:38:21;;;;;;;3.67;2.28;;;;;;;2.26;100.00;101094.50;5074637;28;20020;-70
2022/11/20 09:41:04;;;;;;;6.43;2.25;;;;;;;2.24;100.00;101091.16;5073736;28;20031;-70
2022/11/20 09:44:06;;;;;;;4.97;2.22;;;;;;;2.21;100.00;101086.16;5075462;28;20024;-70
2022/11/20 09:46:45;;;;;;;3.60;1.35;;;;;;;2.24;100.00;101089.41;5074883;28;20050;-70
2022/11/20 09:49:34;;;;;;;1.83;1.67;;;;;;;2.20;100.00;101093.13;5076098;28;20016;-71
2022/11/20 09:52:23;;;;;;;2.65;1.70;;;;;;;2.18;100.00;101086.34;5075532;28;20031;-71
2022/11/20 09:54:50;;;;;;;6.10;2.05;;;;;;;2.31;100.00;101083.81;5073702;28;20033;-71
2022/11/20 09:57:21;;;;;;;2.35;2.10;;;;;;;2.24;100.00;101072.94;5074735;28;20040;-71
2022/11/20 09:59:55;;;;;;;2.70;1.30;;;;;;;2.32;100.00;101094.16;5075691;28;20021;-71
2022/11/20 10:02:23;;;;;;;1.98;1.55;;;;;;;2.41;100.00;101084.97;5073015;28;20035;-71
2022/11/20 10:04:59;;;;;;;4.38;1.63;;;;;;;2.20;100.00;101084.47;5073526;28;20379;-71
2022/11/20 10:07:48;;;;;;;3.17;1.85;;;;;;;2.05;100.00;101070.59;5075415;28;20028;-71
2022/11/20 10:10:27;;;;;;;1.70;1.38;;;;;;;2.24;100.00;101080.75;5074287;28;20042;-72
2022/11/20 10:13:16;;;;;;;5.55;2.75;;;;;;;2.29;100.00;101067.44;5074187;28;20271;-71
2022/11/20 10:15:59;;;;;;;3.30;2.25;;;;;;;2.39;100.00;101072.03;5055457;28;20518;-71
2022/11/20 10:18:45;;;;;;;4.13;1.98;;;;;;;2.42;100.00;101073.63;5074395;28;20028;-71
2022/11/20 10:21:20;;;;;;;3.95;2.15;;;;;;;2.37;100.00;101076.47;5074334;28;20036;-70
2022/11/20 10:24:15;;;;;;;4.07;3.00;;;;;;;2.49;100.00;101072.31;5073427;28;20031;-70
2022/11/20 10:27:03;;;;;;;4.57;2.20;;;;;;;2.70;100.00;101062.38;5073841;28;20029;-70
2022/11/20 10:29:38;;;;;;;2.90;2.35;;;;;;;2.50;100.00;101026.25;5074545;28;20109;-70
2022/11/20 10:32:11;;;;;;;3.63;2.42;;;;;;;2.81;100.00;101049.50;5075638;28;20111;-70
2022/11/20 10:34:51;;;;;;;2.78;1.88;;;;;;;3.01;100.00;101040.44;5073386;28;20020;-70
2022/11/20 10:37:25;;;;;;;2.03;1.53;;;;;;;2.73;100.00;101028.28;5074500;28;20099;-70
2022/11/20 10:40:00;;;;;;;3.97;2.22;;;;;;;2.80;100.00;101020.94;5073671;28;20395;-70
2022/11/20 10:42:42;;;;;;;6.25;2.38;;;;;;;2.77;100.00;101015.91;5073201;28;20066;-70
2022/11/20 10:45:33;;;;;;;4.32;2.83;;;;;;;2.78;100.00;101034.03;5073722;28;20028;-70
2022/11/20 10:48:22;;;;;;;5.78;3.95;;;;;;;2.72;100.00;101010.13;5054630;28;20089;-70
2022/11/20 10:51:32;;;;;;;2.72;2.28;;;;;;;2.65;100.00;101017.50;5057768;28;20020;-70
2022/11/20 10:54:24;;;;;;;4.68;1.90;;;;;;;2.62;100.00;101015.94;5055326;28;20024;-70
2022/11/20 10:56:52;;;;;;;3.20;2.10;;;;;;;2.97;100.00;101018.09;5073453;28;20035;-70
2022/11/20 10:59:33;;;;;;;3.78;2.13;;;;;;;3.35;100.00;101022.63;5055773;28;20587;-70
2022/11/20 11:01:58;;;;;;;2.67;1.80;;;;;;;3.63;100.00;101026.91;5073813;28;20518;-70
2022/11/20 11:04:42;;;;;;;4.93;2.25;;;;;;;3.72;100.00;101028.06;5073414;28;20040;-70
2022/11/20 11:07:19;;;;;;;2.65;2.08;;;;;;;3.63;100.00;101002.56;5074980;28;20031;-70
2022/11/20 11:09:49;;;;;;;3.05;1.88;;;;;;;3.95;100.00;101023.94;5072141;28;20016;-70
2022/11/20 11:12:15;;;;;;;3.03;2.22;;;;;;;3.82;98.48;101015.25;5073097;28;20035;-70
2022/11/20 11:14:54;;;;;;;3.75;2.25;;;;;;;3.38;97.53;100996.38;5072038;28;20024;-70
2022/11/20 11:17:28;;;;;;;3.28;1.88;;;;;;;3.35;99.84;100986.09;5072975;28;20091;-70
2022/11/20 11:19:58;;;;;;;5.57;2.13;;;;;;;3.19;100.00;100982.84;5040819;28;20388;-70
2022/11/20 11:22:23;;;;;;;3.90;2.53;;;;;;;3.46;100.00;100999.31;5057422;28;20472;-70
2022/11/20 11:24:53;;;;;;;5.18;3.13;;;;;;;3.18;98.41;100984.63;5073078;28;20021;-70
2022/11/20 11:27:19;;;;;;;4.30;2.85;;;;;;;3.33;100.00;100993.19;5072730;28;20108;-70
2022/11/20 11:29:48;;;;;;;4.30;2.42;;;;;;;3.53;98.42;100984.09;5071982;28;20020;-70
2022/11/20 11:32:21;;;;;;;4.07;2.22;;;;;;;3.53;98.01;100955.38;5055374;28;20031;-70
2022/11/20 11:35:04;;;;;;;3.63;3.25;;;;;;;4.28;97.42;100993.84;5072221;28;20031;-70
2022/11/20 11:37:35;;;;;;;4.55;2.30;;;;;;;4.63;92.62;101003.63;5074445;28;20049;-70
2022/11/20 11:40:03;;;;;;;2.72;2.05;;;;;;;4.51;90.51;101008.78;5055734;28;20028;-71
2022/11/20 11:42:30;;;;;;;4.53;2.05;;;;;;;4.43;91.49;100994.56;5076979;28;20063;-71
2022/11/20 11:45:06;;;;;;;3.22;2.42;;;;;;;4.48;91.94;101001.13;5077414;28;20020;-71